createdAt,value
2019-03-23T00:00:42.063Z,39.03
2019-03-23T00:01:51.075Z,41.73
2019-03-23T00:02:57.542Z,40.67
2019-03-23T00:04:04.246Z,40.20
2019-03-23T00:05:10.835Z,38.98
2019-03-23T00:06:17.585Z,38.80
2019-03-23T00:07:23.715Z,39.20
2019-03-23T00:08:30.142Z,38.42
2019-03-23T00:09:36.579Z,36.48
2019-03-23T00:10:45.647Z,36.38
2019-03-23T00:11:51.936Z,37.53
2019-03-23T00:12:58.902Z,37.58
2019-03-23T00:14:05.235Z,37.45
2019-03-23T00:15:12.376Z,38.53
2019-03-23T00:16:18.464Z,39.30
2019-03-23T00:17:24.475Z,40.73
2019-03-23T00:18:30.543Z,40.17
2019-03-23T00:19:38.164Z,42.17
2019-03-23T00:20:44.215Z,40.52
2019-03-23T00:21:50.564Z,40.80
2019-03-23T00:22:57.462Z,39.48
2019-03-23T00:24:04.225Z,37.33
2019-03-23T00:25:11.136Z,39.20
2019-03-23T00:26:17.616Z,36.90
2019-03-23T00:27:26.437Z,36.40
2019-03-23T00:28:33.592Z,37.58
2019-03-23T00:29:40.424Z,34.60
2019-03-23T00:30:47.356Z,35.50
2019-03-23T00:31:54.296Z,34.90
2019-03-23T00:33:01.059Z,37.90
2019-03-23T00:34:07.543Z,36.10
2019-03-23T00:35:14.463Z,36.85
2019-03-23T00:36:21.178Z,34.67
2019-03-23T00:37:27.064Z,34.23
2019-03-23T00:38:33.036Z,33.48
2019-03-23T00:39:40.937Z,34.65
2019-03-23T00:40:48.566Z,33.33
2019-03-23T00:41:54.619Z,33.00
2019-03-23T00:43:00.918Z,31.90
2019-03-23T00:44:07.628Z,31.55
2019-03-23T00:45:13.939Z,30.70
2019-03-23T00:46:20.082Z,28.75
2019-03-23T00:47:25.936Z,29.75
2019-03-23T00:48:32.337Z,29.65
2019-03-23T00:49:38.357Z,29.18
2019-03-23T00:50:44.365Z,28.12
2019-03-23T00:51:51.143Z,27.77
2019-03-23T00:53:00.317Z,28.23
2019-03-23T00:54:07.137Z,27.93
2019-03-23T00:55:13.418Z,28.87
2019-03-23T00:56:20.577Z,29.30
2019-03-23T00:57:28.237Z,29.60
2019-03-23T00:58:36.757Z,30.45
2019-03-23T00:59:45.738Z,29.48
2019-03-23T01:00:52.918Z,30.52
2019-03-23T01:01:59.868Z,29.10
2019-03-23T01:03:07.358Z,28.52
2019-03-23T01:04:14.464Z,29.23
2019-03-23T01:05:21.065Z,28.30
2019-03-23T01:06:30.198Z,27.62
2019-03-23T01:07:36.678Z,27.48
2019-03-23T01:08:42.638Z,28.75
2019-03-23T01:09:49.059Z,27.10
2019-03-23T01:10:55.077Z,27.93
2019-03-23T01:12:01.838Z,27.42
2019-03-23T01:13:07.959Z,27.02
2019-03-23T01:14:13.998Z,27.35
2019-03-23T01:15:20.418Z,27.90
2019-03-23T01:16:27.158Z,28.07
2019-03-23T01:17:34.885Z,29.23
2019-03-23T01:18:41.557Z,29.27
2019-03-23T01:19:48.025Z,30.57
2019-03-23T01:20:56.186Z,29.70
2019-03-23T01:22:04.358Z,30.12
2019-03-23T01:23:11.998Z,31.73
2019-03-23T01:24:19.157Z,30.72
2019-03-23T01:25:28.726Z,29.42
2019-03-23T01:26:35.922Z,29.10
2019-03-23T01:27:42.965Z,28.55
2019-03-23T01:28:49.405Z,28.40
2019-03-23T01:29:57.126Z,27.17
2019-03-23T01:31:03.638Z,28.83
2019-03-23T01:32:10.418Z,28.27
2019-03-23T01:33:17.426Z,30.08
2019-03-23T01:34:34.978Z,30.15
2019-03-23T01:35:41.998Z,32.80
2019-03-23T01:36:49.039Z,28.07
2019-03-23T01:37:55.299Z,27.82
2019-03-23T01:39:01.137Z,29.85
2019-03-23T01:40:09.788Z,29.40
2019-03-23T01:41:16.160Z,31.27
2019-03-23T01:42:23.819Z,31.20
2019-03-23T01:43:30.598Z,32.03
2019-03-23T01:44:36.526Z,32.95
2019-03-23T01:45:43.167Z,31.33
2019-03-23T01:46:49.661Z,30.95
2019-03-23T01:47:56.119Z,31.33
2019-03-23T01:49:02.346Z,31.23
2019-03-23T01:50:12.407Z,30.80
2019-03-23T01:51:18.908Z,31.73
2019-03-23T01:52:25.979Z,29.95
2019-03-23T01:53:32.661Z,30.72
2019-03-23T01:54:39.626Z,30.48
2019-03-23T01:55:46.560Z,30.37
2019-03-23T01:56:53.440Z,30.75
2019-03-23T01:58:01.172Z,31.10
2019-03-23T01:59:07.908Z,33.38
2019-03-23T02:00:15.667Z,34.88
2019-03-23T02:01:23.959Z,34.40
2019-03-23T02:02:32.421Z,35.55
2019-03-23T02:03:40.359Z,34.85
2019-03-23T02:04:48.306Z,35.30
2019-03-23T02:05:55.563Z,35.17
2019-03-23T02:07:02.159Z,33.98
2019-03-23T02:08:08.520Z,35.25
2019-03-23T02:09:14.339Z,36.63
2019-03-23T02:10:20.426Z,33.88
2019-03-23T02:11:26.759Z,34.40
2019-03-23T02:12:34.276Z,33.48
2019-03-23T02:13:40.159Z,33.90
2019-03-23T02:14:45.920Z,33.98
2019-03-23T02:15:52.204Z,33.70
2019-03-23T02:16:58.140Z,33.92
2019-03-23T02:18:04.389Z,34.20
2019-03-23T02:19:10.500Z,34.88
2019-03-23T02:20:16.541Z,35.63
2019-03-23T02:21:23.220Z,36.80
2019-03-23T02:22:30.240Z,36.63
2019-03-23T02:23:37.240Z,38.98
2019-03-23T02:24:44.501Z,37.75
2019-03-23T02:25:51.339Z,39.25
2019-03-23T02:26:59.182Z,38.20
2019-03-23T02:28:05.990Z,37.53
2019-03-23T02:29:12.740Z,35.08
2019-03-23T02:30:19.922Z,33.63
2019-03-23T02:31:27.761Z,35.33
2019-03-23T02:32:34.667Z,34.30
2019-03-23T02:33:43.289Z,34.75
2019-03-23T02:34:50.214Z,35.65
2019-03-23T02:35:57.127Z,33.45
2019-03-23T02:37:04.133Z,34.38
2019-03-23T02:38:10.133Z,35.03
2019-03-23T02:39:16.007Z,35.48
2019-03-23T02:40:21.845Z,35.95
2019-03-23T02:41:27.689Z,35.70
2019-03-23T02:42:33.488Z,38.30
2019-03-23T02:43:39.370Z,35.70
2019-03-23T02:44:45.282Z,38.48
2019-03-23T02:45:51.009Z,39.00
2019-03-23T02:46:56.935Z,37.50
2019-03-23T02:48:02.759Z,36.38
2019-03-23T02:49:08.635Z,35.10
2019-03-23T02:50:14.990Z,32.53
2019-03-23T02:51:21.279Z,34.00
2019-03-23T02:52:27.918Z,33.98
2019-03-23T02:53:34.704Z,34.65
2019-03-23T02:54:41.208Z,33.33
2019-03-23T02:55:47.830Z,32.63
2019-03-23T02:56:54.575Z,33.15
2019-03-23T02:58:02.967Z,30.43
2019-03-23T02:59:10.720Z,30.70
2019-03-23T03:00:17.609Z,32.73
2019-03-23T03:01:23.879Z,33.13
2019-03-23T03:02:30.847Z,31.15
2019-03-23T03:03:37.730Z,32.73
2019-03-23T03:04:44.858Z,33.85
2019-03-23T03:05:51.780Z,34.33
2019-03-23T03:06:57.652Z,33.15
2019-03-23T03:08:03.809Z,35.10
2019-03-23T03:09:09.617Z,35.88
2019-03-23T03:10:38.658Z,35.00
2019-03-23T03:11:44.440Z,34.92
2019-03-23T03:12:50.449Z,33.53
2019-03-23T03:13:56.267Z,32.03
2019-03-23T03:15:02.290Z,32.95
2019-03-23T03:16:08.218Z,31.48
2019-03-23T03:17:14.189Z,32.13
2019-03-23T03:18:20.085Z,31.85
2019-03-23T03:19:26.329Z,33.05
2019-03-23T03:20:32.509Z,32.20
2019-03-23T03:21:38.873Z,34.85
2019-03-23T03:22:45.657Z,32.63
2019-03-23T03:23:52.281Z,35.63
2019-03-23T03:24:58.869Z,34.18
2019-03-23T03:26:05.697Z,33.55
2019-03-23T03:27:12.940Z,32.65
2019-03-23T03:28:19.557Z,34.25
2019-03-23T03:29:26.149Z,35.15
2019-03-23T03:30:32.137Z,35.45
2019-03-23T03:31:39.292Z,35.20
2019-03-23T03:32:46.190Z,37.03
2019-03-23T03:33:52.907Z,36.38
2019-03-23T03:34:59.441Z,34.92
2019-03-23T03:36:05.951Z,36.95
2019-03-23T03:37:13.211Z,38.42
2019-03-23T03:38:19.689Z,36.48
2019-03-23T03:39:25.424Z,36.45
2019-03-23T03:40:31.233Z,35.38
2019-03-23T03:41:37.368Z,35.50
2019-03-23T03:42:43.242Z,35.30
2019-03-23T03:43:49.078Z,33.42
2019-03-23T03:44:54.911Z,35.28
2019-03-23T03:46:00.678Z,33.45
2019-03-23T03:47:06.520Z,33.45
2019-03-23T03:48:12.379Z,34.67
2019-03-23T03:49:18.257Z,34.60
2019-03-23T03:50:24.633Z,33.25
2019-03-23T03:51:30.931Z,32.48
2019-03-23T03:52:37.202Z,31.42
2019-03-23T03:53:43.640Z,34.55
2019-03-23T03:54:50.692Z,34.85
2019-03-23T03:55:57.710Z,34.43
2019-03-23T03:57:04.593Z,34.98
2019-03-23T03:58:11.230Z,32.75
2019-03-23T03:59:17.832Z,31.95
2019-03-23T04:00:24.779Z,34.45
2019-03-23T04:01:31.181Z,37.08
2019-03-23T04:02:38.811Z,32.38
2019-03-23T04:03:45.232Z,34.67
2019-03-23T04:04:52.892Z,35.15
2019-03-23T04:06:00.056Z,34.60
2019-03-23T04:07:06.761Z,33.75
2019-03-23T04:08:14.050Z,36.33
2019-03-23T04:09:19.770Z,34.40
2019-03-23T04:10:25.544Z,36.13
2019-03-23T04:11:31.402Z,34.35
2019-03-23T04:12:37.362Z,34.13
2019-03-23T04:13:44.443Z,34.78
2019-03-23T04:14:50.208Z,35.00
2019-03-23T04:15:56.078Z,34.30
2019-03-23T04:17:01.895Z,36.50
2019-03-23T04:18:07.825Z,35.80
2019-03-23T04:19:13.715Z,34.40
2019-03-23T04:20:20.581Z,38.28
2019-03-23T04:21:27.010Z,36.90
2019-03-23T04:22:33.777Z,38.55
2019-03-23T04:23:40.667Z,36.20
2019-03-23T04:24:47.074Z,42.65
2019-03-23T04:25:54.164Z,46.68
2019-03-23T04:27:01.679Z,45.00
2019-03-23T04:28:08.447Z,41.30
2019-03-23T04:29:15.440Z,40.92
2019-03-23T04:30:22.093Z,38.83
2019-03-23T04:31:29.446Z,38.13
2019-03-23T04:32:37.161Z,36.88
2019-03-23T04:33:43.719Z,37.90
2019-03-23T04:34:50.791Z,36.80
2019-03-23T04:35:57.775Z,36.10
2019-03-23T04:37:05.740Z,37.85
2019-03-23T04:38:22.697Z,35.85
2019-03-23T04:39:21.799Z,35.65
2019-03-23T04:40:27.830Z,37.40
2019-03-23T04:41:33.730Z,44.50
2019-03-23T04:42:39.617Z,48.55
2019-03-23T04:43:51.220Z,44.33
2019-03-23T04:44:57.146Z,43.83
2019-03-23T04:46:02.994Z,44.55
2019-03-23T04:47:08.831Z,43.48
2019-03-23T04:48:14.660Z,40.58
2019-03-23T04:49:20.469Z,42.67
2019-03-23T04:50:26.313Z,42.03
2019-03-23T04:51:33.074Z,43.85
2019-03-23T04:52:39.843Z,43.25
2019-03-23T04:53:47.339Z,42.23
2019-03-23T04:54:54.240Z,40.80
2019-03-23T04:56:00.244Z,39.50
2019-03-23T04:57:06.622Z,41.28
2019-03-23T04:58:15.172Z,42.80
2019-03-23T04:59:21.890Z,42.67
2019-03-23T05:00:28.851Z,42.13
2019-03-23T05:01:35.502Z,40.92
2019-03-23T05:02:41.752Z,40.15
2019-03-23T05:03:49.733Z,40.98
2019-03-23T05:04:56.941Z,41.75
2019-03-23T05:06:04.812Z,42.67
2019-03-23T05:07:11.373Z,48.68
2019-03-23T05:08:18.413Z,45.78
2019-03-23T05:09:24.574Z,41.88
2019-03-23T05:10:30.431Z,40.48
2019-03-23T05:11:36.283Z,39.13
2019-03-23T05:12:42.320Z,40.58
2019-03-23T05:13:52.192Z,40.65
2019-03-23T05:14:58.012Z,39.73
2019-03-23T05:16:04.123Z,40.12
2019-03-23T05:17:10.972Z,41.68
2019-03-23T05:18:17.079Z,42.25
2019-03-23T05:19:27.002Z,40.30
2019-03-23T05:20:34.621Z,41.77
2019-03-23T05:21:41.103Z,41.13
2019-03-23T05:22:47.871Z,39.92
2019-03-23T05:23:55.436Z,37.73
2019-03-23T05:25:02.085Z,37.95
2019-03-23T05:26:08.713Z,38.50
2019-03-23T05:27:15.624Z,39.50
2019-03-23T05:28:21.816Z,39.03
2019-03-23T05:29:28.183Z,37.65
2019-03-23T05:30:35.323Z,36.20
2019-03-23T05:31:42.133Z,37.38
2019-03-23T05:32:49.373Z,38.80
2019-03-23T05:33:55.994Z,37.30
2019-03-23T05:35:03.195Z,37.70
2019-03-23T05:36:09.444Z,39.10
2019-03-23T05:37:17.044Z,40.28
2019-03-23T05:38:24.072Z,39.67
2019-03-23T05:39:30.213Z,40.33
2019-03-23T05:40:36.022Z,39.97
2019-03-23T05:41:41.751Z,39.57
2019-03-23T05:42:47.744Z,37.50
2019-03-23T05:43:53.533Z,39.10
2019-03-23T05:44:59.393Z,36.55
2019-03-23T05:46:05.452Z,38.90
2019-03-23T05:47:11.483Z,38.10
2019-03-23T05:48:17.559Z,39.03
2019-03-23T05:49:23.347Z,36.80
2019-03-23T05:50:29.473Z,39.37
2019-03-23T05:51:36.196Z,36.28
2019-03-23T05:52:42.484Z,38.42
2019-03-23T05:53:49.175Z,36.13
2019-03-23T05:54:55.724Z,37.00
2019-03-23T05:56:02.634Z,38.33
2019-03-23T05:57:09.727Z,36.93
2019-03-23T05:58:15.994Z,35.23
2019-03-23T05:59:22.774Z,36.13
2019-03-23T06:00:29.425Z,36.03
2019-03-23T06:01:36.514Z,38.70
2019-03-23T06:02:42.984Z,38.83
2019-03-23T06:03:49.264Z,37.00
2019-03-23T06:05:07.064Z,38.53
2019-03-23T06:06:15.212Z,38.50
2019-03-23T06:07:35.235Z,39.67
2019-03-23T06:08:55.358Z,39.70
2019-03-23T06:10:07.832Z,38.83
2019-03-23T06:11:20.445Z,38.77
2019-03-23T06:12:26.331Z,36.90
2019-03-23T06:13:32.319Z,36.80
2019-03-23T06:14:38.270Z,37.90
2019-03-23T06:15:45.364Z,35.93
2019-03-23T06:16:51.306Z,34.50
2019-03-23T06:17:57.400Z,34.37
2019-03-23T06:19:03.185Z,34.97
2019-03-23T06:20:10.485Z,34.20
2019-03-23T06:21:16.336Z,34.27
2019-03-23T06:22:23.384Z,35.43
2019-03-23T06:23:29.685Z,37.17
2019-03-23T06:24:36.164Z,35.53
2019-03-23T06:25:42.933Z,36.50
2019-03-23T06:26:49.635Z,37.70
2019-03-23T06:27:56.485Z,37.93
2019-03-23T06:29:03.183Z,38.87
2019-03-23T06:30:12.043Z,36.50
2019-03-23T06:31:18.572Z,36.70
2019-03-23T06:32:24.726Z,36.73
2019-03-23T06:33:31.236Z,34.83
2019-03-23T06:34:40.148Z,35.90
2019-03-23T06:35:46.495Z,33.13
2019-03-23T06:36:53.237Z,34.60
2019-03-23T06:37:59.653Z,33.67
2019-03-23T06:39:07.555Z,32.20
2019-03-23T06:40:13.595Z,32.67
2019-03-23T06:41:19.643Z,33.53
2019-03-23T06:42:25.453Z,33.77
2019-03-23T06:43:32.715Z,33.30
2019-03-23T06:44:39.746Z,33.37
2019-03-23T06:45:46.025Z,33.63
2019-03-23T06:46:54.003Z,33.20
2019-03-23T06:48:03.965Z,34.60
2019-03-23T06:49:21.658Z,34.43
2019-03-23T06:50:34.407Z,35.37
2019-03-23T06:51:45.669Z,34.33
2019-03-23T06:53:04.289Z,32.03
2019-03-23T06:54:17.565Z,34.67
2019-03-23T06:55:24.494Z,33.33
2019-03-23T06:56:32.314Z,33.10
2019-03-23T06:57:38.767Z,32.30
2019-03-23T06:58:46.037Z,32.05
2019-03-23T06:59:56.645Z,30.10
2019-03-23T07:01:04.154Z,30.70
2019-03-23T07:02:31.645Z,28.12
2019-03-23T07:03:37.548Z,29.30
2019-03-23T07:04:46.380Z,27.60
2019-03-23T07:05:52.855Z,28.05
2019-03-23T07:06:59.608Z,27.77
2019-03-23T07:08:05.768Z,28.20
2019-03-23T07:09:16.316Z,29.15
2019-03-23T07:10:20.426Z,27.87
2019-03-23T07:11:26.367Z,27.13
2019-03-23T07:12:32.263Z,27.82
2019-03-23T07:13:38.260Z,28.17
2019-03-23T07:14:44.041Z,26.37
2019-03-23T07:15:49.984Z,27.40
2019-03-23T07:16:55.854Z,28.20
2019-03-23T07:18:01.711Z,31.62
2019-03-23T07:19:07.550Z,25.62
2019-03-23T07:20:14.580Z,26.90
2019-03-23T07:21:22.716Z,25.77
2019-03-23T07:22:29.146Z,24.80
2019-03-23T07:23:35.497Z,24.87
2019-03-23T07:25:03.247Z,37.83
2019-03-23T07:26:10.334Z,23.83
2019-03-23T07:27:16.614Z,24.87
2019-03-23T07:28:23.448Z,26.13
2019-03-23T07:29:30.198Z,24.30
2019-03-23T07:30:36.719Z,22.73
2019-03-23T07:31:44.121Z,23.60
2019-03-23T07:32:50.846Z,23.37
2019-03-23T07:33:58.300Z,23.40
2019-03-23T07:35:08.939Z,25.20
2019-03-23T07:36:15.669Z,23.43
2019-03-23T07:37:22.481Z,26.57
2019-03-23T07:38:29.459Z,24.53
2019-03-23T07:39:36.839Z,24.53
2019-03-23T07:40:42.847Z,25.77
2019-03-23T07:41:48.719Z,27.30
2019-03-23T07:42:54.881Z,27.67
2019-03-23T07:44:02.780Z,27.70
2019-03-23T07:45:11.932Z,29.13
2019-03-23T07:46:17.839Z,27.53
2019-03-23T07:47:23.880Z,28.17
2019-03-23T07:48:30.116Z,28.13
2019-03-23T07:49:36.210Z,26.73
2019-03-23T07:50:45.478Z,27.20
2019-03-23T07:51:51.460Z,27.30
2019-03-23T07:52:57.278Z,29.73
2019-03-23T07:54:05.798Z,26.90
2019-03-23T07:55:17.695Z,28.70
2019-03-23T07:56:24.757Z,29.90
2019-03-23T07:57:33.713Z,30.60
2019-03-23T07:58:39.939Z,31.30
2019-03-23T07:59:45.877Z,31.10
2019-03-23T08:00:53.077Z,33.93
2019-03-23T08:01:59.660Z,32.20
2019-03-23T08:03:06.360Z,33.90
2019-03-23T08:04:13.627Z,34.73
2019-03-23T08:05:20.230Z,34.37
2019-03-23T08:06:27.057Z,35.70
2019-03-23T08:07:33.897Z,33.77
2019-03-23T08:08:40.638Z,34.40
2019-03-23T08:09:47.548Z,35.00
2019-03-23T08:10:53.420Z,35.27
2019-03-23T08:12:01.260Z,34.20
2019-03-23T08:13:07.844Z,33.13
2019-03-23T08:14:13.981Z,32.77
2019-03-23T08:15:20.208Z,34.60
2019-03-23T08:16:26.397Z,34.93
2019-03-23T08:17:33.953Z,34.60
2019-03-23T08:18:39.871Z,35.53
2019-03-23T08:19:45.611Z,35.83
2019-03-23T08:20:51.850Z,35.87
2019-03-23T08:21:58.310Z,35.33
2019-03-23T08:23:04.308Z,34.20
2019-03-23T08:24:11.574Z,36.27
2019-03-23T08:26:04.272Z,35.70
2019-03-23T08:27:11.641Z,34.20
2019-03-23T08:28:20.452Z,35.97
2019-03-23T08:29:27.547Z,32.60
2019-03-23T08:30:34.442Z,33.77
2019-03-23T08:31:41.230Z,35.47
2019-03-23T08:32:52.987Z,35.17
2019-03-23T08:34:20.207Z,34.67
2019-03-23T08:35:27.262Z,35.20
2019-03-23T08:36:33.718Z,34.93
2019-03-23T08:37:41.101Z,34.37
2019-03-23T08:38:48.259Z,36.60
2019-03-23T08:39:54.891Z,36.07
2019-03-23T08:41:00.711Z,37.23
2019-03-23T08:42:06.841Z,37.47
2019-03-23T08:43:14.771Z,36.30
2019-03-23T08:44:21.031Z,35.67
2019-03-23T08:45:27.242Z,36.07
2019-03-23T08:46:33.501Z,36.50
2019-03-23T08:47:41.342Z,35.37
2019-03-23T08:48:48.751Z,34.40
2019-03-23T08:49:54.843Z,34.93
2019-03-23T08:51:01.804Z,35.53
2019-03-23T08:52:07.948Z,36.67
2019-03-23T08:53:13.911Z,39.67
2019-03-23T08:54:20.826Z,38.50
2019-03-23T08:55:27.512Z,39.00
2019-03-23T08:56:34.133Z,39.57
2019-03-23T08:57:41.478Z,39.77
2019-03-23T08:58:48.879Z,40.77
2019-03-23T08:59:57.233Z,39.70
2019-03-23T09:01:03.731Z,40.27
2019-03-23T09:02:27.032Z,43.13
2019-03-23T09:03:34.607Z,40.37
2019-03-23T09:04:41.188Z,41.60
2019-03-23T09:05:51.334Z,44.13
2019-03-23T09:06:57.322Z,43.30
2019-03-23T09:08:04.179Z,41.17
2019-03-23T09:09:11.112Z,41.03
2019-03-23T09:10:17.298Z,38.97
2019-03-23T09:11:27.033Z,38.67
2019-03-23T09:12:33.972Z,40.33
2019-03-23T09:13:40.986Z,39.87
2019-03-23T09:14:49.161Z,41.20
2019-03-23T09:15:55.792Z,41.43
2019-03-23T09:17:03.533Z,40.77
2019-03-23T09:18:10.494Z,43.47
2019-03-23T09:19:17.192Z,44.30
2019-03-23T09:20:23.809Z,46.13
2019-03-23T09:21:30.452Z,41.50
2019-03-23T09:22:37.832Z,43.43
2019-03-23T09:23:45.040Z,43.70
2019-03-23T09:24:56.981Z,43.27
2019-03-23T09:26:01.020Z,42.83
2019-03-23T09:27:08.433Z,43.67
2019-03-23T09:28:15.373Z,43.47
2019-03-23T09:29:22.164Z,46.17
2019-03-23T09:30:29.089Z,45.30
2019-03-23T09:31:35.693Z,47.10
2019-03-23T09:32:43.459Z,42.30
2019-03-23T09:33:51.001Z,44.43
2019-03-23T09:34:58.213Z,43.97
2019-03-23T09:36:04.992Z,43.20
2019-03-23T09:37:13.344Z,45.83
2019-03-23T09:38:20.260Z,45.57
2019-03-23T09:39:27.651Z,45.13
2019-03-23T09:40:34.852Z,44.60
2019-03-23T09:41:41.694Z,42.63
2019-03-23T09:42:49.120Z,43.93
2019-03-23T09:43:56.412Z,44.07
2019-03-23T09:45:03.744Z,43.67
2019-03-23T09:46:12.614Z,45.37
2019-03-23T09:47:20.641Z,43.20
2019-03-23T09:48:27.976Z,43.83
2019-03-23T09:49:35.039Z,37.17
2019-03-23T09:50:41.800Z,45.07
2019-03-23T09:51:48.701Z,44.27
2019-03-23T09:52:55.973Z,38.87
2019-03-23T09:54:03.780Z,42.67
2019-03-23T09:55:33.020Z,41.83
2019-03-23T09:56:39.180Z,40.10
2019-03-23T09:57:45.974Z,42.87
2019-03-23T09:58:53.753Z,45.23
2019-03-23T10:00:00.081Z,40.90
2019-03-23T10:01:08.030Z,43.30
2019-03-23T10:02:14.812Z,39.97
2019-03-23T10:03:21.430Z,40.13
2019-03-23T10:04:28.432Z,39.03
2019-03-23T10:05:35.631Z,40.00
2019-03-23T10:06:42.130Z,40.97
2019-03-23T10:07:49.166Z,38.83
2019-03-23T10:08:55.871Z,39.13
2019-03-23T10:10:02.410Z,39.13
2019-03-23T10:11:09.270Z,39.37
2019-03-23T10:12:15.983Z,40.97
2019-03-23T10:13:23.062Z,41.20
2019-03-23T10:14:29.905Z,41.00
2019-03-23T10:15:37.110Z,40.83
2019-03-23T10:16:43.790Z,38.40
2019-03-23T10:17:51.023Z,38.63
2019-03-23T10:18:58.731Z,38.70
2019-03-23T10:20:07.550Z,40.57
2019-03-23T10:21:15.783Z,40.80
2019-03-23T10:22:23.610Z,42.17
2019-03-23T10:23:31.223Z,41.73
2019-03-23T10:24:40.043Z,42.43
2019-03-23T10:25:47.283Z,39.37
2019-03-23T10:26:53.563Z,40.43
2019-03-23T10:28:00.350Z,39.60
2019-03-23T10:29:07.150Z,41.37
2019-03-23T10:30:13.298Z,39.37
2019-03-23T10:31:20.303Z,38.53
2019-03-23T10:32:27.705Z,40.23
2019-03-23T10:33:35.763Z,38.73
2019-03-23T10:34:42.877Z,38.27
2019-03-23T10:35:49.543Z,37.20
2019-03-23T10:36:56.311Z,37.20
2019-03-23T10:38:03.195Z,40.90
2019-03-23T10:39:10.287Z,39.37
2019-03-23T10:40:18.270Z,38.93
2019-03-23T10:41:25.514Z,40.30
2019-03-23T10:42:33.770Z,36.97
2019-03-23T10:43:40.190Z,40.40
2019-03-23T10:44:48.071Z,39.77
2019-03-23T10:45:55.494Z,42.83
2019-03-23T10:47:01.752Z,43.70
2019-03-23T10:48:09.471Z,41.00
2019-03-23T10:49:16.785Z,40.10
2019-03-23T10:50:23.491Z,40.03
2019-03-23T10:51:30.925Z,40.30
2019-03-23T10:52:37.825Z,39.27
2019-03-23T10:53:44.060Z,34.13
2019-03-23T10:54:51.191Z,36.53
2019-03-23T10:55:59.071Z,38.40
2019-03-23T10:57:05.094Z,39.07
2019-03-23T10:58:12.153Z,39.03
2019-03-23T10:59:19.624Z,40.23
2019-03-23T11:00:26.044Z,39.63
2019-03-23T11:01:33.273Z,39.17
2019-03-23T11:02:40.510Z,38.50
2019-03-23T11:03:46.925Z,38.60
2019-03-23T11:04:54.134Z,38.47
2019-03-23T11:06:01.185Z,39.37
2019-03-23T11:07:07.394Z,39.10
2019-03-23T11:08:35.812Z,39.80
2019-03-23T11:09:42.351Z,38.17
2019-03-23T11:10:49.188Z,35.93
2019-03-23T11:11:56.401Z,39.80
2019-03-23T11:13:03.346Z,39.57
2019-03-23T11:14:10.385Z,39.97
2019-03-23T11:15:19.032Z,41.40
2019-03-23T11:16:25.385Z,40.90
2019-03-23T11:17:32.791Z,38.87
2019-03-23T11:18:39.832Z,39.27
2019-03-23T11:19:45.752Z,40.30
2019-03-23T11:20:52.035Z,40.00
2019-03-23T11:21:59.014Z,41.60
2019-03-23T11:23:06.006Z,40.23
2019-03-23T11:24:11.905Z,37.93
2019-03-23T11:25:19.345Z,41.03
2019-03-23T11:26:28.128Z,39.47
2019-03-23T11:27:34.593Z,41.13
2019-03-23T11:28:41.165Z,42.27
2019-03-23T11:29:48.347Z,41.50
2019-03-23T11:30:55.525Z,42.03
2019-03-23T11:32:03.106Z,40.23
2019-03-23T11:33:09.940Z,40.27
2019-03-23T11:34:18.280Z,40.20
2019-03-23T11:35:25.716Z,40.83
2019-03-23T11:36:34.212Z,40.27
2019-03-23T11:37:40.933Z,41.13
2019-03-23T11:38:47.927Z,42.57
2019-03-23T11:39:56.885Z,44.77
2019-03-23T11:41:03.333Z,43.37
2019-03-23T11:42:11.833Z,41.93
2019-03-23T11:43:19.975Z,41.87
2019-03-23T11:44:26.286Z,42.83
2019-03-23T11:45:33.407Z,42.60
2019-03-23T11:46:41.436Z,42.27
2019-03-23T11:47:47.813Z,40.60
2019-03-23T11:48:55.476Z,45.03
2019-03-23T11:50:02.652Z,42.67
2019-03-23T11:51:09.649Z,41.00
2019-03-23T11:52:18.305Z,43.10
2019-03-23T11:53:25.922Z,43.43
2019-03-23T11:54:34.110Z,43.33
2019-03-23T11:55:43.055Z,40.93
2019-03-23T11:56:49.772Z,41.10
2019-03-23T11:57:55.854Z,41.10
2019-03-23T11:59:02.053Z,41.83
2019-03-23T12:00:12.672Z,41.47
2019-03-23T12:01:19.707Z,42.03
2019-03-23T12:02:27.055Z,40.43
2019-03-23T12:03:34.852Z,42.70
2019-03-23T12:04:41.585Z,43.30
2019-03-23T12:05:50.633Z,43.20
2019-03-23T12:06:58.935Z,42.93
2019-03-23T12:08:05.015Z,44.23
2019-03-23T12:09:11.620Z,42.80
2019-03-23T12:10:18.735Z,43.47
2019-03-23T12:11:25.335Z,42.30
2019-03-23T12:12:31.863Z,43.53
2019-03-23T12:13:39.495Z,41.93
2019-03-23T12:14:45.845Z,43.37
2019-03-23T12:15:53.063Z,44.70
2019-03-23T12:17:00.695Z,41.43
2019-03-23T12:18:08.796Z,42.83
2019-03-23T12:19:15.675Z,43.93
2019-03-23T12:20:22.895Z,41.87
2019-03-23T12:21:29.436Z,42.07
2019-03-23T12:22:36.343Z,43.47
2019-03-23T12:23:43.423Z,42.93
2019-03-23T12:24:51.736Z,42.97
2019-03-23T12:25:58.963Z,44.57
2019-03-23T12:27:07.544Z,39.13
2019-03-23T12:28:14.165Z,42.77
2019-03-23T12:29:20.896Z,42.70
2019-03-23T12:30:28.088Z,42.23
2019-03-23T12:31:33.996Z,44.00
2019-03-23T12:32:40.383Z,42.63
2019-03-23T12:33:47.503Z,41.90
2019-03-23T12:34:54.237Z,43.57
2019-03-23T12:36:01.356Z,43.53
2019-03-23T12:37:08.503Z,42.17
2019-03-23T12:38:14.751Z,43.27
2019-03-23T12:39:21.425Z,43.40
2019-03-23T12:40:28.576Z,42.90
2019-03-23T12:41:35.090Z,40.87
2019-03-23T12:42:42.143Z,43.03
2019-03-23T12:43:48.879Z,42.30
2019-03-23T12:44:55.336Z,43.97
2019-03-23T12:46:01.751Z,42.67
2019-03-23T12:47:08.416Z,42.23
2019-03-23T12:48:14.317Z,44.67
2019-03-23T12:49:20.824Z,43.07
2019-03-23T12:50:28.356Z,44.07
2019-03-23T12:51:34.516Z,43.50
2019-03-23T12:52:41.366Z,46.07
2019-03-23T12:53:48.645Z,43.13
2019-03-23T12:54:55.387Z,39.77
2019-03-23T12:56:02.384Z,40.93
2019-03-23T12:57:09.076Z,39.97
2019-03-23T12:58:16.626Z,41.83
2019-03-23T12:59:23.905Z,41.50
2019-03-23T13:00:30.963Z,41.30
2019-03-23T13:01:37.403Z,41.37
2019-03-23T13:02:45.638Z,40.50
2019-03-23T13:03:52.716Z,41.23
2019-03-23T13:04:58.923Z,40.10
2019-03-23T13:06:05.857Z,40.40
2019-03-23T13:07:13.904Z,42.00
2019-03-23T13:08:20.236Z,40.97
2019-03-23T13:09:27.484Z,40.63
2019-03-23T13:10:33.985Z,41.10
2019-03-23T13:11:40.316Z,41.37
2019-03-23T13:12:47.183Z,42.47
2019-03-23T13:13:55.457Z,40.93
2019-03-23T13:15:12.543Z,40.47
2019-03-23T13:16:19.204Z,39.30
2019-03-23T13:17:26.157Z,38.90
2019-03-23T13:18:32.425Z,39.70
2019-03-23T13:19:45.569Z,40.53
2019-03-23T13:20:51.737Z,37.80
2019-03-23T13:21:57.817Z,37.20
2019-03-23T13:23:05.066Z,36.30
2019-03-23T13:24:11.657Z,37.80
2019-03-23T13:25:19.419Z,35.73
2019-03-23T13:26:28.277Z,36.00
2019-03-23T13:27:35.037Z,34.37
2019-03-23T13:28:42.217Z,33.90
2019-03-23T13:29:49.604Z,37.17
2019-03-23T13:30:55.858Z,36.27
2019-03-23T13:32:02.605Z,35.30
2019-03-23T13:33:08.990Z,36.57
2019-03-23T13:34:15.298Z,36.30
2019-03-23T13:35:21.978Z,37.80
2019-03-23T13:36:28.827Z,34.60
2019-03-23T13:37:35.667Z,34.60
2019-03-23T13:38:43.407Z,34.90
2019-03-23T13:39:57.117Z,33.37
2019-03-23T13:41:24.226Z,31.83
2019-03-23T13:42:31.487Z,34.57
2019-03-23T13:43:40.044Z,32.60
2019-03-23T13:44:45.895Z,32.57
2019-03-23T13:45:53.128Z,31.63
2019-03-23T13:47:00.847Z,31.47
2019-03-23T13:48:06.783Z,30.63
2019-03-23T13:49:13.894Z,31.23
2019-03-23T13:50:32.947Z,28.90
2019-03-23T13:51:40.008Z,28.17
2019-03-23T13:52:48.334Z,28.33
2019-03-23T13:53:54.687Z,26.93
2019-03-23T13:55:00.776Z,25.97
2019-03-23T13:56:07.829Z,28.00
2019-03-23T13:57:16.807Z,27.00
2019-03-23T13:58:23.348Z,29.33
2019-03-23T13:59:31.828Z,28.77
2019-03-23T14:00:38.847Z,28.90
2019-03-23T14:01:46.054Z,28.87
2019-03-23T14:02:54.014Z,27.87
2019-03-23T14:04:00.895Z,26.50
2019-03-23T14:05:16.144Z,27.17
2019-03-23T14:06:20.294Z,29.53
2019-03-23T14:07:27.059Z,27.73
2019-03-23T14:08:34.328Z,26.70
2019-03-23T14:09:41.707Z,26.87
2019-03-23T14:10:49.213Z,25.47
2019-03-23T14:11:55.847Z,26.13
2019-03-23T14:13:03.368Z,25.52
2019-03-23T14:14:10.407Z,25.55
2019-03-23T14:15:17.596Z,25.97
2019-03-23T14:16:26.571Z,24.00
2019-03-23T14:17:33.388Z,25.23
2019-03-23T14:18:40.168Z,26.20
2019-03-23T14:19:50.099Z,26.57
2019-03-23T14:20:58.095Z,25.20
2019-03-23T14:22:06.375Z,24.63
2019-03-23T14:23:12.788Z,25.03
2019-03-23T14:24:21.416Z,25.20
2019-03-23T14:25:28.287Z,25.10
2019-03-23T14:26:34.848Z,24.00
2019-03-23T14:27:42.815Z,23.73